Time;durP1;ratioP1;P1;durP2;ratioP2;P2;SDS_P1;SDS_P2;PMS_P1;PMS_P2;Temp;Humidity;BMP_temperature;BMP_pressure;BME280_temperature;BME280_humidity;BME280_pressure;Samples;Min_cycle;Max_cycle;Signal;HPM_P1;HPM_P2
2022/06/30 00:00:58;;;;;;;20.52;10.00;;;;;;;20.53;59.54;100663.13;5001122;28;20068;-64
2022/06/30 00:03:26;;;;;;;16.23;9.27;;;;;;;20.50;59.38;100661.63;5001692;28;20046;-63
2022/06/30 00:05:53;;;;;;;14.05;8.48;;;;;;;20.49;59.84;100662.63;4997485;28;20062;-63
2022/06/30 00:08:20;;;;;;;11.02;6.78;;;;;;;20.46;59.67;100670.91;4998856;28;20070;-62
2022/06/30 00:10:47;;;;;;;9.75;7.00;;;;;;;20.43;59.71;100671.19;5000984;28;20046;-63
2022/06/30 00:13:15;;;;;;;9.57;5.88;;;;;;;20.43;60.21;100673.88;5003857;28;20057;-62
2022/06/30 00:15:42;;;;;;;11.15;5.15;;;;;;;20.41;60.08;100678.53;4999610;28;20122;-63
2022/06/30 00:18:09;;;;;;;11.55;5.35;;;;;;;20.42;59.74;100672.19;5003386;28;20057;-59
2022/06/30 00:20:36;;;;;;;6.40;4.43;;;;;;;20.40;60.08;100675.03;4999262;28;20062;-64
2022/06/30 00:23:03;;;;;;;10.00;4.45;;;;;;;20.38;59.75;100676.16;5003131;28;20057;-65
2022/06/30 00:25:30;;;;;;;8.45;4.15;;;;;;;20.37;59.86;100672.66;5001986;28;21957;-67
2022/06/30 00:27:58;;;;;;;5.68;3.40;;;;;;;20.36;60.26;100675.50;5004006;28;20482;-65
2022/06/30 00:30:25;;;;;;;9.13;4.32;;;;;;;20.34;60.20;100674.78;5003092;28;20069;-68
2022/06/30 00:32:53;;;;;;;7.15;4.15;;;;;;;20.34;60.43;100669.44;4980464;28;20065;-63
2022/06/30 00:35:21;;;;;;;8.10;4.35;;;;;;;20.34;60.25;100669.44;5000368;28;20064;-65
2022/06/30 00:37:48;;;;;;;7.13;4.63;;;;;;;20.34;60.42;100661.41;5003868;28;20054;-65
2022/06/30 00:40:15;;;;;;;7.13;3.88;;;;;;;20.33;60.52;100659.75;4997420;28;20203;-68
2022/06/30 00:42:42;;;;;;;8.30;4.25;;;;;;;20.31;60.84;100651.88;5001371;28;20069;-63
2022/06/30 00:45:10;;;;;;;5.63;4.03;;;;;;;20.30;61.04;100655.53;5002485;28;20433;-65
2022/06/30 00:47:37;;;;;;;6.10;4.15;;;;;;;20.27;61.44;100650.50;5000424;28;20091;-62
2022/06/30 00:50:05;;;;;;;7.72;4.07;;;;;;;20.23;61.39;100652.63;5000146;28;20054;-65
2022/06/30 00:52:35;;;;;;;9.27;4.32;;;;;;;20.21;61.40;100649.25;4984303;28;20049;-63
2022/06/30 00:55:04;;;;;;;6.28;4.18;;;;;;;20.23;61.67;100655.31;5000318;28;20061;-63
2022/06/30 00:57:33;;;;;;;8.82;4.32;;;;;;;20.27;62.17;100657.69;5003119;28;20049;-65
2022/06/30 01:00:02;;;;;;;7.30;4.05;;;;;;;20.30;62.18;100650.19;4980447;28;20046;-64
2022/06/30 01:02:30;;;;;;;7.45;4.40;;;;;;;20.31;62.10;100643.88;5007771;28;20061;-64
2022/06/30 01:04:57;;;;;;;6.72;4.82;;;;;;;20.32;63.61;100645.53;4985871;28;20054;-65
2022/06/30 01:07:25;;;;;;;11.55;4.88;;;;;;;20.32;64.31;100645.53;5002034;28;20670;-64
2022/06/30 01:12:44;;;;;;;7.13;4.03;;;;;;;20.36;64.38;100649.59;5004331;28;20052;-65
2022/06/30 01:15:14;;;;;;;6.40;4.32;;;;;;;20.37;66.31;100645.09;5001798;28;20696;-65
2022/06/30 01:17:42;;;;;;;3.90;3.38;;;;;;;20.36;65.60;100646.91;5004510;28;20057;-65
2022/06/30 01:20:10;;;;;;;6.43;3.70;;;;;;;20.39;65.72;100651.09;4999127;28;20092;-61
2022/06/30 01:22:37;;;;;;;8.52;3.92;;;;;;;20.39;65.59;100648.44;5000401;28;20037;-64
2022/06/30 01:25:06;;;;;;;6.57;3.03;;;;;;;20.41;65.17;100654.47;4995285;28;20064;-64
2022/06/30 01:27:33;;;;;;;6.65;3.65;;;;;;;20.43;66.93;100655.16;5002437;28;20066;-65
2022/06/30 01:30:01;;;;;;;6.57;3.50;;;;;;;20.41;66.35;100644.63;4999132;28;20061;-64
2022/06/30 01:36:42;;;;;;;8.63;3.47;;;;;;;20.43;66.88;100647.13;4980092;28;20787;-64
2022/06/30 01:39:09;;;;;;;5.40;2.63;;;;;;;20.42;67.07;100640.94;4990766;28;20057;-65
2022/06/30 01:41:36;;;;;;;3.95;2.60;;;;;;;20.46;66.83;100646.84;4969379;28;20045;-64
2022/06/30 01:44:03;;;;;;;5.47;3.50;;;;;;;20.43;67.32;100647.13;4978474;28;20058;-65
2022/06/30 01:46:30;;;;;;;6.70;2.85;;;;;;;20.44;67.79;100643.44;4990058;28;20080;-63
2022/06/30 01:48:58;;;;;;;5.55;2.90;;;;;;;20.44;68.03;100648.81;4996185;28;20054;-64
2022/06/30 01:51:25;;;;;;;6.22;2.80;;;;;;;20.42;68.20;100635.59;4996322;28;20050;-65
2022/06/30 01:53:53;;;;;;;3.45;2.65;;;;;;;20.44;68.72;100643.44;4998704;28;20384;-63
2022/06/30 01:56:20;;;;;;;7.03;3.78;;;;;;;20.42;69.09;100640.09;4986496;28;20577;-65
2022/06/30 01:58:53;;;;;;;6.50;3.67;;;;;;;20.43;68.78;100628.41;4994312;28;20054;-65
2022/06/30 02:01:20;;;;;;;7.45;3.50;;;;;;;20.42;69.33;100629.41;4989014;28;20230;-65
2022/06/30 02:03:48;;;;;;;6.20;3.20;;;;;;;20.42;69.78;100629.41;4998041;28;20058;-63
2022/06/30 02:06:16;;;;;;;7.43;3.45;;;;;;;20.41;69.61;100631.25;4988835;28;20932;-64
2022/06/30 02:08:43;;;;;;;10.60;3.72;;;;;;;20.41;69.93;100620.56;4997289;28;20054;-64
2022/06/30 02:11:10;;;;;;;6.85;3.45;;;;;;;20.40;69.60;100621.56;4972795;28;20062;-65
2022/06/30 02:13:38;;;;;;;4.18;2.80;;;;;;;20.41;69.82;100614.38;4991078;28;20050;-65
2022/06/30 02:16:05;;;;;;;4.50;2.88;;;;;;;20.39;70.72;100624.38;4993828;28;20053;-65
2022/06/30 02:18:32;;;;;;;7.93;3.38;;;;;;;20.39;70.91;100619.84;4992925;28;20073;-65
2022/06/30 02:20:59;;;;;;;4.32;2.88;;;;;;;20.39;70.72;100613.66;4991789;28;20076;-66
2022/06/30 02:23:26;;;;;;;5.57;2.58;;;;;;;20.41;70.43;100620.56;4991388;28;20046;-66
2022/06/30 02:25:53;;;;;;;5.50;3.47;;;;;;;20.39;71.39;100619.84;4986143;28;20053;-66
2022/06/30 02:28:20;;;;;;;6.97;3.10;;;;;;;20.38;70.59;100618.19;4993719;28;20062;-66
2022/06/30 02:30:48;;;;;;;6.88;3.30;;;;;;;20.39;70.80;100613.66;4991764;28;20718;-64
2022/06/30 02:33:17;;;;;;;4.82;2.83;;;;;;;20.37;71.16;100618.34;4994599;28;20058;-66
2022/06/30 02:35:44;;;;;;;7.40;2.88;;;;;;;20.34;71.24;100616.81;4988802;28;20871;-64
2022/06/30 02:38:11;;;;;;;5.95;3.30;;;;;;;20.35;70.89;100612.28;5002989;28;20541;-66
2022/06/30 02:40:39;;;;;;;6.82;3.92;;;;;;;20.33;71.59;100608.94;4995653;28;20080;-63
2022/06/30 02:43:06;;;;;;;5.10;3.08;;;;;;;20.31;72.25;100603.75;4993261;28;20049;-67
2022/06/30 02:45:33;;;;;;;5.25;3.20;;;;;;;20.33;71.34;100608.94;4989767;28;20164;-65
2022/06/30 02:48:00;;;;;;;5.88;3.25;;;;;;;20.35;71.37;100606.94;4989330;28;20053;-65
2022/06/30 02:50:29;;;;;;;7.32;3.22;;;;;;;20.36;71.31;100608.66;4986986;28;20076;-65
2022/06/30 02:52:57;;;;;;;7.35;3.72;;;;;;;20.38;71.72;100614.66;4994054;28;20097;-65
2022/06/30 02:55:24;;;;;;;9.35;2.78;;;;;;;20.37;71.24;100602.31;4989230;28;20054;-65
2022/06/30 02:57:51;;;;;;;6.15;3.33;;;;;;;20.38;71.45;100601.31;4990734;28;20073;-65
2022/06/30 03:00:19;;;;;;;7.72;2.80;;;;;;;20.38;71.20;100602.13;4994679;28;20076;-64
2022/06/30 03:02:46;;;;;;;6.40;3.13;;;;;;;20.39;71.22;100605.66;4991729;28;20061;-64
2022/06/30 03:05:14;;;;;;;5.97;3.03;;;;;;;20.38;71.13;100606.66;4988809;28;20065;-64
2022/06/30 03:07:41;;;;;;;8.18;3.30;;;;;;;20.39;70.67;100606.47;4977099;28;20633;-63
2022/06/30 03:10:08;;;;;;;6.28;3.10;;;;;;;20.40;70.64;100604.69;4990354;28;20064;-65
2022/06/30 03:12:37;;;;;;;5.43;3.08;;;;;;;20.39;70.50;100609.16;4986691;28;20068;-63
2022/06/30 03:15:05;;;;;;;7.53;3.00;;;;;;;20.42;70.54;100610.69;4987341;28;20057;-63
2022/06/30 03:17:33;;;;;;;5.15;3.20;;;;;;;20.42;70.18;100613.38;4992580;28;20078;-64
2022/06/30 03:20:00;;;;;;;6.15;3.08;;;;;;;20.39;70.63;100611.00;4990288;28;20131;-63
2022/06/30 03:22:27;;;;;;;4.60;2.97;;;;;;;20.40;70.88;100608.19;4986705;28;20042;-65
2022/06/30 03:24:54;;;;;;;6.32;3.20;;;;;;;20.39;71.29;100608.31;4987892;28;20061;-64
2022/06/30 03:27:21;;;;;;;4.45;2.92;;;;;;;20.36;72.33;100600.63;4964415;28;20081;-65
2022/06/30 03:29:48;;;;;;;4.32;2.40;;;;;;;20.36;71.98;100611.31;4983187;28;20077;-64
2022/06/30 03:32:16;;;;;;;6.38;3.17;;;;;;;20.36;72.02;100606.81;4985070;28;20058;-63
2022/06/30 03:34:43;;;;;;;10.85;3.53;;;;;;;20.34;73.35;100592.75;4981767;28;20082;-63
2022/06/30 03:37:10;;;;;;;5.50;3.08;;;;;;;20.32;73.33;100591.22;4983064;28;20846;-64
2022/06/30 03:39:37;;;;;;;4.05;2.90;;;;;;;20.31;73.84;100584.19;4985610;28;20054;-62
2022/06/30 03:42:05;;;;;;;18.38;3.30;;;;;;;20.29;74.75;100578.16;4988216;28;20065;-65
2022/06/30 03:44:32;;;;;;;6.13;3.20;;;;;;;20.30;75.85;100566.47;4986583;28;20491;-65
2022/06/30 03:47:00;;;;;;;5.47;3.42;;;;;;;20.24;77.92;100558.06;4969405;28;20168;-64
2022/06/30 03:49:27;;;;;;;5.40;2.80;;;;;;;20.22;76.60;100568.09;4988996;28;20069;-62
2022/06/30 03:51:55;;;;;;;3.22;2.28;;;;;;;20.27;76.26;100561.47;4988623;28;20062;-64
2022/06/30 03:54:22;;;;;;;12.10;3.90;;;;;;;20.28;76.69;100571.16;4991080;28;20045;-64
2022/06/30 03:56:50;;;;;;;6.13;3.75;;;;;;;20.32;77.08;100567.16;4988374;28;20049;-64
2022/06/30 03:59:18;;;;;;;5.32;3.17;;;;;;;20.33;76.89;100571.53;4990860;28;20058;-63
2022/06/30 04:01:45;;;;;;;4.82;3.20;;;;;;;20.35;76.38;100575.69;4982059;28;20054;-65
2022/06/30 04:04:12;;;;;;;6.38;3.15;;;;;;;20.38;76.64;100579.91;4987217;28;20061;-63
2022/06/30 04:06:40;;;;;;;4.85;2.80;;;;;;;20.38;76.79;100572.72;4984506;28;20049;-64
2022/06/30 04:09:07;;;;;;;5.18;3.10;;;;;;;20.38;77.04;100570.06;4990042;28;21786;-66
2022/06/30 04:11:34;;;;;;;6.20;3.63;;;;;;;20.39;77.19;100576.22;4989315;28;20050;-65
2022/06/30 04:14:02;;;;;;;5.82;3.38;;;;;;;20.40;77.59;100575.25;4976465;28;20042;-63
2022/06/30 04:16:29;;;;;;;7.18;3.33;;;;;;;20.41;78.26;100577.78;4993180;28;20491;-65
2022/06/30 04:18:56;;;;;;;6.10;3.47;;;;;;;20.39;77.75;100578.91;4973681;28;20049;-65
2022/06/30 04:21:24;;;;;;;4.80;3.22;;;;;;;20.41;77.75;100569.75;4992228;28;20061;-65
2022/06/30 04:23:51;;;;;;;5.57;3.85;;;;;;;20.43;77.12;100573.09;4992088;28;20082;-62
2022/06/30 04:26:18;;;;;;;11.07;3.95;;;;;;;20.48;77.46;100581.50;4991516;28;20054;-63
2022/06/30 04:28:45;;;;;;;9.95;4.30;;;;;;;20.47;78.40;100574.50;4989893;28;20077;-63
2022/06/30 04:33:59;;;;;;;7.32;3.75;;;;;;;20.64;77.44;100577.31;4995896;28;20046;-62
2022/06/30 04:36:26;;;;;;;8.73;3.22;;;;;;;20.71;77.30;100589.03;4989208;28;20501;-63
2022/06/30 04:38:53;;;;;;;4.63;3.15;;;;;;;20.78;77.34;100587.41;4988463;28;20413;-65
2022/06/30 04:41:23;;;;;;;8.68;3.88;;;;;;;20.92;76.50;100588.69;4986888;28;20062;-62
2022/06/30 04:43:58;;;;;;;5.82;3.15;;;;;;;20.98;76.60;100585.34;4997476;28;20050;-65
2022/06/30 04:46:26;;;;;;;8.05;3.58;;;;;;;21.01;76.10;100574.34;4992949;28;20061;-64
2022/06/30 04:48:54;;;;;;;9.75;3.45;;;;;;;21.05;75.97;100573.03;4993641;28;20049;-65
2022/06/30 04:51:21;;;;;;;5.05;3.78;;;;;;;21.12;75.62;100574.09;4991161;28;20142;-64
2022/06/30 04:53:49;;;;;;;8.40;4.05;;;;;;;21.15;75.48;100573.75;5003348;28;20560;-64
2022/06/30 04:56:17;;;;;;;5.53;3.70;;;;;;;21.14;75.34;100569.41;4996094;28;20414;-64
2022/06/30 04:58:45;;;;;;;7.80;3.38;;;;;;;21.16;75.17;100569.22;5000965;28;20506;-65
2022/06/30 05:01:12;;;;;;;5.15;3.33;;;;;;;21.19;75.17;100571.59;5009306;28;20058;-65
2022/06/30 05:03:40;;;;;;;14.70;3.67;;;;;;;21.22;75.16;100565.94;5009367;28;20054;-66
2022/06/30 05:06:07;;;;;;;11.27;3.75;;;;;;;21.29;74.78;100569.63;4997061;28;20394;-64
2022/06/30 05:08:35;;;;;;;6.55;3.42;;;;;;;21.40;74.12;100561.34;4987785;28;20629;-63
2022/06/30 05:11:02;;;;;;;6.72;3.42;;;;;;;21.48;73.43;100557.84;4996576;28;20050;-64
2022/06/30 05:13:29;;;;;;;7.03;2.90;;;;;;;21.62;73.04;100569.78;5000955;28;20042;-64
2022/06/30 05:15:57;;;;;;;9.88;3.95;;;;;;;21.68;72.58;100556.56;4999813;28;20145;-58
2022/06/30 05:18:26;;;;;;;6.43;4.70;;;;;;;21.69;72.21;100560.91;5013489;28;20234;-57
2022/06/30 05:20:54;;;;;;;7.05;3.33;;;;;;;21.76;72.41;100558.44;5006906;28;20187;-59
2022/06/30 05:23:21;;;;;;;6.18;3.85;;;;;;;21.83;72.18;100556.75;5014694;28;20078;-57
2022/06/30 05:28:35;;;;;;;7.13;3.58;;;;;;;22.03;70.90;100551.09;5012852;28;20053;-59
2022/06/30 05:31:02;;;;;;;8.73;3.30;;;;;;;22.13;70.58;100558.00;5018609;28;20046;-58
2022/06/30 05:33:29;;;;;;;4.80;3.00;;;;;;;22.25;70.14;100566.56;5011124;28;20053;-56
2022/06/30 05:35:57;;;;;;;7.13;3.47;;;;;;;22.34;69.55;100556.66;5006771;28;20060;-58
2022/06/30 05:38:24;;;;;;;6.63;3.20;;;;;;;22.39;69.27;100555.16;5011130;28;20058;-60
2022/06/30 05:40:52;;;;;;;8.02;3.25;;;;;;;22.44;68.78;100558.16;5011598;28;20806;-59
2022/06/30 05:43:19;;;;;;;8.43;3.53;;;;;;;22.50;67.91;100560.16;5004259;28;20046;-57
2022/06/30 05:45:46;;;;;;;7.47;3.63;;;;;;;22.50;67.81;100559.31;4999750;28;20064;-57
2022/06/30 05:48:13;;;;;;;7.82;3.42;;;;;;;22.43;67.66;100563.69;4992372;28;20415;-57
2022/06/30 05:50:41;;;;;;;6.50;3.47;;;;;;;22.36;67.41;100562.69;4998901;28;20042;-56
2022/06/30 05:53:08;;;;;;;6.15;3.78;;;;;;;22.28;67.57;100568.88;5002632;28;20077;-57
2022/06/30 05:55:35;;;;;;;6.18;4.05;;;;;;;22.24;68.08;100571.09;5002674;28;20049;-57
2022/06/30 05:58:06;;;;;;;4.88;3.08;;;;;;;22.23;67.86;100572.06;5002928;28;20057;-58
2022/06/30 06:00:34;;;;;;;9.18;3.65;;;;;;;22.22;67.89;100573.06;5006774;28;20058;-57
2022/06/30 06:03:01;;;;;;;6.10;3.88;;;;;;;22.17;68.00;100574.59;5008597;28;20054;-57
2022/06/30 06:05:29;;;;;;;8.25;3.53;;;;;;;22.14;68.33;100569.56;5009898;28;20057;-58
2022/06/30 06:08:03;;;;;;;7.70;3.78;;;;;;;22.16;68.20;100583.66;5010731;28;20046;-57
2022/06/30 06:10:31;;;;;;;7.25;3.42;;;;;;;22.17;68.33;100580.78;4985753;28;20452;-59
2022/06/30 06:12:58;;;;;;;5.70;3.53;;;;;;;22.15;68.08;100576.59;5016703;28;20061;-55
2022/06/30 06:15:25;;;;;;;7.35;4.20;;;;;;;22.16;68.04;100580.97;5004594;28;20070;-60
2022/06/30 06:17:53;;;;;;;8.93;4.20;;;;;;;22.14;68.23;100585.63;5013374;28;20134;-58
2022/06/30 06:20:20;;;;;;;7.88;3.50;;;;;;;22.13;68.30;100595.53;5005837;28;20050;-60
2022/06/30 06:22:47;;;;;;;10.82;4.00;;;;;;;22.11;68.78;100597.53;4984180;28;20065;-57
2022/06/30 06:25:15;;;;;;;10.57;3.67;;;;;;;22.05;68.28;100597.31;4992212;28;20038;-59
2022/06/30 06:27:42;;;;;;;7.55;3.58;;;;;;;21.96;68.78;100601.84;5000862;28;20088;-53
2022/06/30 06:30:10;;;;;;;7.32;3.58;;;;;;;21.96;69.27;100604.50;4996895;28;20053;-56
2022/06/30 06:32:37;;;;;;;11.52;3.67;;;;;;;21.96;69.19;100601.84;5001414;28;20053;-58
2022/06/30 06:35:08;;;;;;;4.90;3.70;;;;;;;22.03;69.62;100604.72;5000938;28;20058;-57
2022/06/30 06:37:38;;;;;;;8.57;4.13;;;;;;;22.25;68.91;100612.16;5011549;28;20430;-59
2022/06/30 06:40:06;;;;;;;5.75;3.80;;;;;;;22.41;68.85;100609.44;5012754;28;20556;-56
2022/06/30 06:42:33;;;;;;;7.50;3.97;;;;;;;22.56;68.48;100609.63;5004289;28;20654;-57
2022/06/30 06:45:08;;;;;;;7.70;4.30;;;;;;;22.70;68.36;100602.75;5003992;28;20046;-56
2022/06/30 06:47:35;;;;;;;7.15;3.55;;;;;;;22.85;68.22;100600.19;5008890;28;20661;-58
2022/06/30 06:50:03;;;;;;;8.95;3.83;;;;;;;23.00;67.54;100607.41;5006086;28;20058;-59
2022/06/30 06:52:30;;;;;;;10.65;4.10;;;;;;;23.15;67.35;100607.53;4976189;28;20054;-58
2022/06/30 06:54:57;;;;;;;7.32;3.97;;;;;;;23.21;66.69;100612.22;5009099;28;20053;-55
2022/06/30 06:57:25;;;;;;;5.47;3.65;;;;;;;23.35;66.49;100596.38;5006055;28;20071;-59
2022/06/30 06:59:52;;;;;;;8.23;4.35;;;;;;;23.42;66.19;100598.22;4999267;28;20514;-57
2022/06/30 07:02:19;;;;;;;9.55;4.82;;;;;;;23.46;66.12;100604.06;5009384;28;20180;-58
2022/06/30 07:04:47;;;;;;;7.38;4.50;;;;;;;23.36;66.54;100606.13;5000506;28;20490;-58
2022/06/30 07:07:14;;;;;;;7.60;5.22;;;;;;;23.20;67.18;100607.84;5002959;28;20045;-57
2022/06/30 07:09:41;;;;;;;7.20;4.75;;;;;;;23.12;67.38;100597.13;5009985;28;20046;-57
2022/06/30 07:12:09;;;;;;;10.88;5.60;;;;;;;23.07;67.43;100598.66;5006879;28;20049;-53
2022/06/30 07:14:36;;;;;;;8.27;4.72;;;;;;;23.09;67.42;100597.47;5015672;28;20038;-58
2022/06/30 07:17:03;;;;;;;9.85;5.35;;;;;;;23.13;67.30;100609.53;5010213;28;20149;-56
2022/06/30 07:19:30;;;;;;;7.80;5.43;;;;;;;23.08;67.65;100606.53;5014061;28;20145;-57
2022/06/30 07:21:57;;;;;;;10.60;4.78;;;;;;;23.14;67.87;100610.38;5012703;28;20053;-58
2022/06/30 07:24:25;;;;;;;9.07;5.60;;;;;;;23.33;67.23;100603.78;5013873;28;20058;-54
2022/06/30 07:26:52;;;;;;;8.13;5.10;;;;;;;23.55;66.72;100612.91;5017528;28;20053;-57
2022/06/30 07:29:19;;;;;;;6.95;5.03;;;;;;;23.75;66.10;100614.19;5012959;28;20054;-56
2022/06/30 07:31:46;;;;;;;9.02;5.00;;;;;;;23.83;65.56;100607.94;5011866;28;20453;-57
2022/06/30 07:34:13;;;;;;;7.88;4.93;;;;;;;23.96;65.31;100602.84;5020616;28;20049;-57
2022/06/30 07:36:41;;;;;;;7.75;5.20;;;;;;;24.18;63.88;100607.38;5014480;28;20057;-52
2022/06/30 07:39:08;;;;;;;7.50;4.60;;;;;;;24.33;63.81;100606.59;5008351;28;20056;-59
2022/06/30 07:41:35;;;;;;;6.32;4.88;;;;;;;24.59;62.24;100606.25;5023690;28;20049;-54
2022/06/30 07:44:03;;;;;;;6.35;4.07;;;;;;;24.73;61.85;100602.75;5005810;28;20057;-59
2022/06/30 07:46:30;;;;;;;4.90;4.28;;;;;;;24.86;61.32;100607.50;5012258;28;20401;-59
2022/06/30 07:49:01;;;;;;;8.00;4.38;;;;;;;24.89;60.91;100604.41;5011996;28;20149;-58
2022/06/30 07:51:28;;;;;;;4.85;3.92;;;;;;;25.05;60.63;100595.34;5007920;28;20620;-55
2022/06/30 07:53:55;;;;;;;7.70;4.63;;;;;;;25.22;60.15;100596.88;5023221;28;20050;-58
2022/06/30 07:56:23;;;;;;;7.40;4.78;;;;;;;25.26;59.76;100590.06;5015676;28;20050;-57
2022/06/30 07:58:50;;;;;;;8.35;4.53;;;;;;;25.35;59.77;100594.34;5015582;28;20046;-55
2022/06/30 08:01:19;;;;;;;10.13;5.22;;;;;;;25.32;59.24;100583.94;5016771;28;20104;-58
2022/06/30 08:03:46;;;;;;;7.85;4.85;;;;;;;25.17;59.57;100583.97;5021137;28;20049;-57
2022/06/30 08:06:14;;;;;;;8.35;4.68;;;;;;;25.32;59.52;100581.25;5015282;28;20054;-59
2022/06/30 08:08:42;;;;;;;8.70;4.93;;;;;;;25.29;59.98;100581.59;5016836;28;20367;-56
2022/06/30 08:11:10;;;;;;;7.50;4.85;;;;;;;25.29;60.16;100580.78;5015547;28;20056;-57
2022/06/30 08:13:37;;;;;;;7.60;6.03;;;;;;;25.35;59.87;100580.00;5021550;28;20057;-56
2022/06/30 08:16:05;;;;;;;6.90;5.20;;;;;;;25.44;59.98;100590.53;5004002;28;20104;-56
2022/06/30 08:18:32;;;;;;;11.77;5.63;;;;;;;25.54;59.88;100584.00;5015142;28;20045;-55
2022/06/30 08:20:59;;;;;;;8.25;5.18;;;;;;;25.68;58.80;100597.44;5009870;28;20079;-58
2022/06/30 08:23:27;;;;;;;8.57;6.78;;;;;;;25.69;58.78;100582.94;5016746;28;20073;-58
2022/06/30 08:25:54;;;;;;;9.43;6.13;;;;;;;25.58;58.61;100578.03;5014499;28;20430;-56
2022/06/30 08:28:21;;;;;;;7.82;5.40;;;;;;;25.58;59.05;100582.56;5003373;28;20525;-53
2022/06/30 08:30:50;;;;;;;6.30;4.53;;;;;;;25.60;59.00;100575.97;5011032;28;20053;-57
2022/06/30 08:33:17;;;;;;;11.73;5.05;;;;;;;25.63;59.54;100570.22;5017730;28;20153;-55
2022/06/30 08:35:45;;;;;;;6.05;4.80;;;;;;;25.74;59.42;100572.41;5009310;28;20072;-59
2022/06/30 08:38:25;;;;;;;8.05;5.65;;;;;;;25.88;58.92;100575.28;5020156;28;20075;-57
2022/06/30 08:43:42;;;;;;;11.25;4.80;;;;;;;26.06;58.14;100583.75;5005940;28;20084;-58
2022/06/30 08:48:44;;;;;;;9.05;5.22;;;;;;;26.21;57.73;100583.72;5011165;28;20053;-53
2022/06/30 08:51:14;;;;;;;9.38;5.35;;;;;;;26.38;57.75;100585.09;5019566;28;20061;-55
2022/06/30 08:53:47;;;;;;;7.55;5.40;;;;;;;26.59;56.88;100584.25;5015509;28;20057;-53
2022/06/30 08:56:14;;;;;;;6.30;5.53;;;;;;;26.56;56.19;100589.22;5012769;28;20595;-54
2022/06/30 08:58:41;;;;;;;8.48;6.38;;;;;;;26.49;56.37;100590.00;4988962;28;20417;-55
2022/06/30 09:01:10;;;;;;;7.13;5.68;;;;;;;26.73;56.16;100588.72;4992914;28;20382;-52
2022/06/30 09:03:38;;;;;;;7.95;5.57;;;;;;;26.95;55.78;100580.56;4998147;28;20450;-54
2022/06/30 09:06:06;;;;;;;8.13;5.30;;;;;;;27.01;55.30;100582.47;5021324;28;20141;-53
2022/06/30 09:08:33;;;;;;;8.65;6.05;;;;;;;26.86;55.15;100584.47;5018137;28;20072;-54
2022/06/30 09:11:00;;;;;;;13.55;5.65;;;;;;;26.85;55.15;100583.63;5008901;28;20533;-54
2022/06/30 09:13:39;;;;;;;6.30;5.18;;;;;;;27.10;55.34;100575.91;5011974;28;20049;-54
2022/06/30 09:16:06;;;;;;;7.18;5.20;;;;;;;27.08;55.02;100577.94;5016723;28;20038;-54
2022/06/30 09:18:33;;;;;;;8.93;6.00;;;;;;;26.93;54.81;100569.13;5009545;28;20042;-51
2022/06/30 09:21:07;;;;;;;8.35;5.93;;;;;;;26.83;55.70;100561.38;5008436;28;20062;-56
2022/06/30 09:23:36;;;;;;;7.65;6.03;;;;;;;26.96;55.84;100561.44;5013757;28;20050;-53
2022/06/30 09:26:03;;;;;;;7.20;5.57;;;;;;;27.25;55.40;100559.56;5006926;28;20042;-51
2022/06/30 09:28:43;;;;;;;7.45;5.55;;;;;;;27.49;54.33;100564.44;5012032;28;20045;-51
2022/06/30 09:31:38;;;;;;;13.18;6.93;;;;;;;27.52;54.05;100568.63;5014599;28;20072;-55
2022/06/30 09:34:20;;;;;;;5.85;4.97;;;;;;;27.76;54.02;100556.44;5021470;28;20060;-54
2022/06/30 09:36:51;;;;;;;8.40;5.35;;;;;;;27.84;53.76;100571.66;5006426;28;20052;-52
2022/06/30 09:39:21;;;;;;;7.70;5.65;;;;;;;27.77;53.06;100577.03;5010480;28;20062;-54
2022/06/30 09:41:49;;;;;;;7.35;5.63;;;;;;;27.74;52.96;100574.75;5002554;28;20054;-51
2022/06/30 09:44:17;;;;;;;6.30;4.75;;;;;;;27.74;53.22;100578.28;5013333;28;20410;-51
2022/06/30 09:47:01;;;;;;;5.38;4.88;;;;;;;27.77;53.13;100572.44;4994752;28;20141;-52
2022/06/30 09:49:33;;;;;;;9.07;5.70;;;;;;;27.78;53.19;100575.97;5013806;28;20128;-53
2022/06/30 09:52:02;;;;;;;6.50;5.60;;;;;;;27.63;52.79;100578.00;5006700;28;20050;-55
2022/06/30 09:54:34;;;;;;;7.88;5.70;;;;;;;27.58;53.36;100570.50;5009795;28;20501;-53
2022/06/30 09:57:06;;;;;;;5.97;5.38;;;;;;;27.70;53.21;100577.00;5009937;28;20050;-54
2022/06/30 09:59:34;;;;;;;7.72;6.43;;;;;;;27.82;52.93;100568.31;5012178;28;20053;-53
2022/06/30 10:02:06;;;;;;;7.18;6.47;;;;;;;28.01;52.66;100564.81;5010904;28;20054;-52
2022/06/30 10:04:56;;;;;;;7.80;6.30;;;;;;;28.25;52.30;100572.31;5007773;28;20582;-52
2022/06/30 10:07:23;;;;;;;7.53;6.80;;;;;;;28.38;51.81;100576.13;5011376;28;20054;-56
2022/06/30 10:09:51;;;;;;;10.85;7.55;;;;;;;28.40;50.82;100580.28;5011875;28;20054;-53
2022/06/30 10:12:20;;;;;;;7.57;6.88;;;;;;;28.27;51.23;100572.13;5014878;28;20537;-54
2022/06/30 10:14:49;;;;;;;7.93;6.55;;;;;;;28.16;51.36;100573.56;5009646;28;20056;-54
2022/06/30 10:17:22;;;;;;;6.70;6.05;;;;;;;28.32;51.18;100574.19;5022314;28;20779;-52
2022/06/30 10:19:51;;;;;;;8.55;6.70;;;;;;;28.24;50.85;100565.25;5009096;28;20068;-54
2022/06/30 10:22:19;;;;;;;9.30;7.20;;;;;;;28.16;51.29;100565.44;5007215;28;20120;-53
2022/06/30 10:24:47;;;;;;;9.20;8.30;;;;;;;28.23;51.22;100571.72;5004123;28;20046;-53
2022/06/30 10:27:14;;;;;;;12.65;7.68;;;;;;;28.22;51.29;100563.78;4991199;28;20058;-51
2022/06/30 10:29:47;;;;;;;7.80;6.72;;;;;;;28.15;51.35;100560.25;5003864;28;20518;-52
2022/06/30 10:32:48;;;;;;;8.20;6.93;;;;;;;28.51;50.82;100566.13;5001755;28;20088;-52
2022/06/30 10:35:26;;;;;;;9.30;7.40;;;;;;;28.77;50.76;100567.09;5006198;28;20057;-54
2022/06/30 10:38:10;;;;;;;9.10;7.50;;;;;;;29.00;49.93;100561.28;4999865;28;20053;-53
2022/06/30 10:41:12;;;;;;;8.00;6.57;;;;;;;29.30;49.37;100552.63;5004751;28;20050;-55
2022/06/30 10:44:03;;;;;;;8.98;7.10;;;;;;;29.65;48.21;100553.94;5002864;28;20053;-55
2022/06/30 10:46:33;;;;;;;12.65;7.55;;;;;;;29.79;48.22;100553.84;4999613;28;20049;-56
2022/06/30 10:49:08;;;;;;;9.65;7.28;;;;;;;29.82;47.77;100564.28;4998257;28;20064;-52
2022/06/30 10:51:35;;;;;;;9.20;7.35;;;;;;;30.01;47.43;100549.75;4994951;28;23180;-54
2022/06/30 10:54:03;;;;;;;9.77;8.82;;;;;;;30.27;47.00;100551.47;4998874;28;20052;-52
2022/06/30 10:56:48;;;;;;;9.27;7.35;;;;;;;30.44;46.24;100559.84;4998641;28;20049;-52
2022/06/30 10:59:17;;;;;;;9.13;8.10;;;;;;;30.61;45.12;100555.53;4999539;28;20214;-52
2022/06/30 11:02:06;;;;;;;8.38;7.25;;;;;;;30.59;45.21;100557.66;4994165;28;20055;-53
2022/06/30 11:04:40;;;;;;;8.65;7.85;;;;;;;30.52;45.37;100554.97;5011833;28;20505;-53
2022/06/30 11:07:17;;;;;;;8.40;6.57;;;;;;;30.67;45.76;100557.38;5008052;28;20178;-55
2022/06/30 11:09:44;;;;;;;11.75;7.70;;;;;;;30.73;44.45;100548.34;4981078;28;20490;-56
2022/06/30 11:12:12;;;;;;;7.90;7.05;;;;;;;30.88;44.45;100549.84;5000676;28;20061;-53
2022/06/30 11:14:50;;;;;;;9.35;8.05;;;;;;;30.67;44.21;100546.50;5000914;28;20069;-57
2022/06/30 11:17:19;;;;;;;8.43;6.55;;;;;;;30.49;45.13;100550.00;4999057;28;20477;-54
2022/06/30 11:19:47;;;;;;;10.57;7.00;;;;;;;30.68;44.92;100552.75;4999817;28;20073;-56
2022/06/30 11:22:16;;;;;;;9.30;6.50;;;;;;;30.88;44.26;100544.41;5000767;28;20514;-52
2022/06/30 11:24:45;;;;;;;9.45;7.10;;;;;;;31.11;44.32;100541.84;5008110;28;20046;-55
2022/06/30 11:27:22;;;;;;;8.10;7.25;;;;;;;31.30;43.83;100539.13;5007044;28;20090;-52
2022/06/30 11:29:56;;;;;;;7.50;6.63;;;;;;;31.44;43.36;100540.66;4991229;28;20052;-53
2022/06/30 11:32:23;;;;;;;7.97;7.13;;;;;;;31.35;42.79;100537.41;5000922;28;20146;-56
2022/06/30 11:34:52;;;;;;;8.23;6.38;;;;;;;31.38;42.87;100533.38;4995616;28;20062;-54
2022/06/30 11:37:23;;;;;;;8.57;6.30;;;;;;;31.67;42.45;100534.47;5001682;28;20064;-55
2022/06/30 11:39:57;;;;;;;9.05;6.82;;;;;;;31.85;42.68;100541.78;5003723;28;20061;-54
2022/06/30 11:42:26;;;;;;;7.20;6.50;;;;;;;31.89;42.33;100542.97;4994410;28;20058;-55
2022/06/30 11:44:53;;;;;;;9.05;7.05;;;;;;;31.85;42.40;100539.88;4996052;28;20068;-55
2022/06/30 11:47:22;;;;;;;8.40;6.32;;;;;;;32.00;42.89;100536.69;5008752;28;20069;-57
2022/06/30 11:49:54;;;;;;;9.02;6.65;;;;;;;31.76;42.73;100533.91;5000301;28;20056;-56